Strona główna
METAR-TAF:

METAR-TAF

Lotnisko :

Port lotniczy Kudat

Kudat, Malezja

Szerokość geograficzna: 06-55N, Długość geograficzna: 116-50E, wysokość: 3 m

Aktualna obserwacja pogody

Raport powstał 1 godzina i 18 minut temu, godzina 20:00 UTC
Wiatr 3 kt od południowy wschód, zmienny między wschodnio-północny wschód i południowo-południowy zachód
Temperatura 27°C
Wilgotność 89%
Ciśnienie 1010 hPa
Widzialność 10 km lub więcej
Mało chmury na wysokości 1400 ft

METAR: WBKT 102000Z 13003KT 060V210 9999 FEW014 27/25 Q1010

czas: 05:18 (21:18 UTC)


TAF: brakujący

Obserwacja i prognoza pogody dla ponad 4000 lotnisk (raport METAR i TAF).

Dostępne stacje oznaczono żółtymi i czerwonymi punktami na mapie.

Najedź kursorem aby zobaczyć nazwę stacji.

Kliknij aby zobaczyć obserwacje i prognozy pogody.

Aby zmienić mapę: kliknij na zielony przycisk z czarnym krzyżykiem, aby powiększyć; na zielony przycisk z myślnikiem, aby pomniejszyć; na zielone strzałki, aby przejść do map sąsiednich.


METAR-TAF: